Terminal Aerodrome Forecast
Issued by NWS

Home | Current Version | Previous Version | Text Only | Print | Product List | Glossary On
Versions: 1 2 3 4 5 6 7 8 9 10 11 12 13 14 15 16 17 18 19 20 21 22 23 24 25 26 27 28 29 30 31 32 33 34 35
000
FTUS45 KSLC 052017 AAB
TAFEVW
TAF AMD
KEVW 052017Z 0520/0618 28010KT P6SM -SHRA VCTS SCT040CB BKN070
      TEMPO 0520/0521 VRB10G20KT -TSRA BKN040CB
     FM060300 31006KT P6SM SCT060 BKN100
     FM060600 22007KT P6SM SCT080 BKN120=

USA.gov is the U.S. government's official web portal to all federal, state and local government web resources and services.